createdAt,value
2023-11-06T00:00:49.694Z,0.30
2023-11-06T00:03:17.271Z,0.10
2023-11-06T00:05:44.997Z,0.20
2023-11-06T00:08:12.545Z,0.10
2023-11-06T00:10:39.977Z,0.15
2023-11-06T00:13:07.496Z,0.00
2023-11-06T00:15:35.052Z,1.30
2023-11-06T00:18:02.506Z,0.10
2023-11-06T00:20:29.897Z,0.73
2023-11-06T00:22:57.262Z,0.60
2023-11-06T00:25:25.014Z,0.25
2023-11-06T00:27:52.368Z,0.20
2023-11-06T00:30:20.867Z,0.10
2023-11-06T00:32:48.476Z,0.10
2023-11-06T00:35:17.830Z,0.08
2023-11-06T00:37:45.314Z,0.10
2023-11-06T00:40:13.018Z,0.10
2023-11-06T00:42:40.462Z,0.20
2023-11-06T00:45:08.299Z,0.20
2023-11-06T00:47:35.715Z,0.22
2023-11-06T00:50:03.221Z,0.52
2023-11-06T00:52:30.645Z,0.75
2023-11-06T00:54:58.381Z,0.20
2023-11-06T00:57:25.701Z,0.20
2023-11-06T00:59:53.069Z,0.35
2023-11-06T01:02:20.483Z,0.10
2023-11-06T01:04:47.988Z,0.28
2023-11-06T01:07:16.088Z,0.30
2023-11-06T01:09:43.452Z,0.10
2023-11-06T01:12:11.215Z,0.10
2023-11-06T01:14:39.511Z,0.10
2023-11-06T01:17:07.217Z,0.32
2023-11-06T01:19:35.049Z,0.30
2023-11-06T01:22:05.774Z,0.20
2023-11-06T01:24:34.119Z,0.20
2023-11-06T01:27:01.394Z,0.10
2023-11-06T01:29:28.985Z,0.30
2023-11-06T01:31:56.367Z,0.20
2023-11-06T01:34:24.212Z,0.30
2023-11-06T01:36:51.570Z,0.30
2023-11-06T01:39:19.936Z,0.30
2023-11-06T01:41:48.203Z,0.10
2023-11-06T01:44:16.033Z,0.20
2023-11-06T01:46:43.537Z,0.10
2023-11-06T01:49:11.357Z,0.20
2023-11-06T01:51:41.441Z,0.20
2023-11-06T01:54:11.340Z,0.38
2023-11-06T01:56:39.677Z,0.22
2023-11-06T01:59:07.158Z,0.20
2023-11-06T02:01:39.292Z,0.10
2023-11-06T02:06:35.841Z,0.30
2023-11-06T02:09:04.806Z,1.15
2023-11-06T02:11:32.362Z,0.10
2023-11-06T02:14:00.544Z,0.10
2023-11-06T02:16:30.033Z,0.30
2023-11-06T02:18:57.990Z,0.20
2023-11-06T02:21:25.422Z,0.77
2023-11-06T02:23:52.802Z,0.32
2023-11-06T02:26:20.185Z,0.17
2023-11-06T02:28:52.929Z,0.10
2023-11-06T02:31:20.474Z,0.20
2023-11-06T02:33:47.962Z,0.10
2023-11-06T02:36:15.641Z,0.13
2023-11-06T02:38:43.034Z,0.52
2023-11-06T02:41:12.471Z,0.20
2023-11-06T02:43:39.938Z,0.20
2023-11-06T02:46:07.547Z,0.85
2023-11-06T02:48:34.927Z,0.05
2023-11-06T02:51:02.258Z,0.22
2023-11-06T02:53:29.661Z,0.20
2023-11-06T02:55:57.387Z,0.10
2023-11-06T02:58:24.813Z,0.10
2023-11-06T03:00:52.187Z,0.10
2023-11-06T03:03:21.431Z,0.38
2023-11-06T03:05:49.126Z,0.10
2023-11-06T03:08:17.960Z,0.10
2023-11-06T03:10:45.669Z,0.20
2023-11-06T03:13:13.197Z,0.10
2023-11-06T03:15:40.659Z,0.30
2023-11-06T03:18:08.155Z,0.20
2023-11-06T03:20:35.831Z,0.25
2023-11-06T03:23:03.384Z,0.10
2023-11-06T03:25:30.781Z,0.70
2023-11-06T03:27:58.164Z,0.20
2023-11-06T03:30:25.545Z,0.15
2023-11-06T03:32:52.989Z,0.10
2023-11-06T03:35:21.039Z,0.05
2023-11-06T03:37:48.529Z,0.10
2023-11-06T03:40:15.983Z,0.10
2023-11-06T03:42:43.619Z,0.10
2023-11-06T03:45:11.104Z,0.10
2023-11-06T03:47:38.787Z,0.20
2023-11-06T03:50:06.994Z,0.50
2023-11-06T03:52:34.398Z,0.20
2023-11-06T03:55:01.746Z,0.17
2023-11-06T03:57:29.094Z,0.10
2023-11-06T03:59:56.463Z,0.10
2023-11-06T04:02:23.847Z,0.20
2023-11-06T04:04:52.051Z,0.20
2023-11-06T04:07:19.466Z,0.63
2023-11-06T04:09:47.208Z,0.17
2023-11-06T04:12:14.627Z,0.20
2023-11-06T04:14:42.003Z,0.20
2023-11-06T04:17:09.546Z,0.10
2023-11-06T04:19:36.921Z,0.38
2023-11-06T04:22:04.951Z,0.10
2023-11-06T04:24:32.281Z,0.40
2023-11-06T04:26:59.685Z,0.22
2023-11-06T04:29:27.212Z,0.15
2023-11-06T04:31:54.615Z,0.10
2023-11-06T04:34:22.006Z,0.10
2023-11-06T04:36:49.516Z,0.88
2023-11-06T04:39:18.211Z,0.10
2023-11-06T04:41:45.687Z,0.30
2023-11-06T04:44:13.179Z,0.25
2023-11-06T04:46:40.534Z,0.13
2023-11-06T04:49:07.994Z,0.08
2023-11-06T04:51:35.797Z,0.25
2023-11-06T04:54:03.407Z,0.13
2023-11-06T04:56:30.804Z,0.43
2023-11-06T04:58:58.934Z,0.40
2023-11-06T05:01:26.398Z,0.40
2023-11-06T05:03:54.597Z,0.30
2023-11-06T05:06:22.176Z,0.20
2023-11-06T05:08:49.588Z,0.50
2023-11-06T05:11:16.969Z,0.25
2023-11-06T05:13:44.357Z,0.13
2023-11-06T05:16:11.867Z,0.20
2023-11-06T05:18:39.338Z,0.50
2023-11-06T05:21:07.149Z,0.88
2023-11-06T05:23:34.920Z,0.00
2023-11-06T05:26:03.670Z,0.30
2023-11-06T05:28:31.578Z,0.35
2023-11-06T05:30:58.977Z,0.30
2023-11-06T05:33:26.402Z,0.20
2023-11-06T05:35:53.847Z,0.20
2023-11-06T05:38:21.229Z,0.40
2023-11-06T05:40:49.259Z,0.28
2023-11-06T05:43:16.616Z,0.20
2023-11-06T05:45:44.012Z,0.17
2023-11-06T05:48:11.440Z,0.35
2023-11-06T05:50:38.962Z,0.20
2023-11-06T05:53:06.407Z,0.28
2023-11-06T05:55:34.443Z,0.20
2023-11-06T05:58:02.397Z,0.15
2023-11-06T06:00:31.990Z,0.30
2023-11-06T06:03:02.839Z,0.65
2023-11-06T06:05:30.820Z,0.63
2023-11-06T06:07:58.876Z,0.10
2023-11-06T06:10:26.494Z,0.30
2023-11-06T06:12:54.211Z,0.10
2023-11-06T06:15:21.551Z,0.30
2023-11-06T06:17:49.037Z,0.40
2023-11-06T06:20:16.509Z,0.30
2023-11-06T06:22:43.946Z,0.20
2023-11-06T06:25:14.161Z,0.63
2023-11-06T06:27:41.635Z,0.43
2023-11-06T06:30:10.800Z,0.40
2023-11-06T06:32:38.420Z,0.47
2023-11-06T06:35:06.177Z,0.65
2023-11-06T06:37:33.594Z,0.30
2023-11-06T06:40:02.017Z,0.20
2023-11-06T06:42:29.477Z,0.50
2023-11-06T06:44:56.849Z,0.30
2023-11-06T06:47:24.236Z,0.32
2023-11-06T06:49:51.762Z,0.50
2023-11-06T06:52:19.125Z,0.20
2023-11-06T06:54:46.564Z,0.70
2023-11-06T06:57:14.242Z,0.85
2023-11-06T06:59:41.985Z,0.40
2023-11-06T07:02:09.588Z,0.55
2023-11-06T07:04:42.035Z,0.20
2023-11-06T07:07:09.697Z,0.57
2023-11-06T07:09:37.248Z,0.77
2023-11-06T07:12:05.391Z,0.20
2023-11-06T07:14:33.846Z,0.10
2023-11-06T07:17:05.997Z,1.60
2023-11-06T07:19:34.038Z,0.30
2023-11-06T07:22:02.762Z,0.52
2023-11-06T07:24:30.431Z,0.20
2023-11-06T07:26:59.087Z,0.40
2023-11-06T07:29:27.427Z,0.20
2023-11-06T07:31:55.221Z,0.30
2023-11-06T07:34:24.008Z,0.82
2023-11-06T07:36:51.936Z,0.50
2023-11-06T07:39:19.911Z,0.35
2023-11-06T07:41:47.493Z,0.20
2023-11-06T07:44:21.108Z,0.22
2023-11-06T07:46:49.720Z,0.47
2023-11-06T07:49:17.494Z,0.20
2023-11-06T07:51:44.991Z,0.20
2023-11-06T07:54:12.454Z,0.20
2023-11-06T07:56:40.039Z,0.25
2023-11-06T07:59:08.156Z,0.10
2023-11-06T08:01:35.784Z,0.20
2023-11-06T08:04:04.064Z,0.30
2023-11-06T08:06:31.627Z,0.28
2023-11-06T08:08:58.982Z,0.20
2023-11-06T08:11:26.831Z,0.13
2023-11-06T08:13:54.222Z,0.20
2023-11-06T08:16:21.595Z,0.20
2023-11-06T08:18:48.940Z,0.45
2023-11-06T08:21:16.341Z,0.30
2023-11-06T08:23:45.442Z,0.95
2023-11-06T08:26:12.903Z,0.10
2023-11-06T08:28:41.469Z,0.30
2023-11-06T08:31:10.936Z,0.20
2023-11-06T08:33:38.974Z,0.40
2023-11-06T08:36:07.273Z,0.22
2023-11-06T08:38:34.975Z,0.05
2023-11-06T08:41:03.712Z,0.30
2023-11-06T08:43:32.412Z,0.10
2023-11-06T08:46:02.107Z,0.10
2023-11-06T08:48:30.185Z,0.47
2023-11-06T08:50:58.315Z,0.35
2023-11-06T08:53:26.108Z,0.60
2023-11-06T08:55:53.542Z,0.17
2023-11-06T08:58:21.372Z,0.10
2023-11-06T09:00:49.046Z,0.15
2023-11-06T09:03:16.770Z,0.22
2023-11-06T09:05:44.357Z,0.15
2023-11-06T09:08:12.150Z,0.00
2023-11-06T09:10:40.283Z,0.10
2023-11-06T09:13:08.002Z,0.10
2023-11-06T09:15:39.404Z,0.25
2023-11-06T09:18:07.415Z,0.30
2023-11-06T09:20:35.317Z,0.40
2023-11-06T09:23:03.303Z,0.17
2023-11-06T09:25:31.445Z,0.10
2023-11-06T09:27:59.265Z,0.20
2023-11-06T09:30:27.020Z,0.05
2023-11-06T09:32:55.600Z,0.35
2023-11-06T09:35:25.600Z,0.13
2023-11-06T09:37:56.511Z,0.30
2023-11-06T09:40:26.880Z,0.25
2023-11-06T09:42:54.815Z,0.10
2023-11-06T09:45:22.715Z,0.28
2023-11-06T09:47:52.147Z,0.10
2023-11-06T09:50:21.449Z,0.40
2023-11-06T09:52:54.759Z,0.10
2023-11-06T09:55:24.193Z,0.20
2023-11-06T09:57:52.573Z,0.10
2023-11-06T10:00:22.444Z,0.15
2023-11-06T10:02:51.961Z,0.10
2023-11-06T10:05:21.914Z,0.93
2023-11-06T10:07:54.375Z,0.10
2023-11-06T10:10:28.623Z,0.10
2023-11-06T10:13:05.048Z,0.30
2023-11-06T10:15:36.360Z,0.47
2023-11-06T10:18:17.995Z,0.10
2023-11-06T10:20:47.001Z,0.20
2023-11-06T10:23:38.647Z,0.52
2023-11-06T10:26:13.736Z,0.13
2023-11-06T10:28:43.065Z,0.08
2023-11-06T10:31:11.506Z,0.40
2023-11-06T10:33:39.614Z,0.28
2023-11-06T10:36:25.733Z,0.10
2023-11-06T10:38:53.882Z,0.10
2023-11-06T10:41:29.290Z,0.15
2023-11-06T10:44:00.521Z,0.10
2023-11-06T10:46:32.125Z,0.20
2023-11-06T10:49:05.318Z,0.55
2023-11-06T10:51:34.759Z,0.20
2023-11-06T10:54:03.378Z,0.25
2023-11-06T10:56:32.262Z,0.40
2023-11-06T10:59:00.356Z,1.10
2023-11-06T11:01:31.260Z,0.30
2023-11-06T11:03:59.643Z,0.40
2023-11-06T11:06:30.525Z,0.22
2023-11-06T11:08:58.935Z,0.20
2023-11-06T11:11:28.673Z,0.20
2023-11-06T11:13:57.263Z,0.43
2023-11-06T11:16:41.932Z,0.52
2023-11-06T11:19:29.261Z,0.40
2023-11-06T11:22:08.028Z,0.20
2023-11-06T11:24:50.655Z,0.30
2023-11-06T11:27:19.534Z,0.20
2023-11-06T11:29:57.782Z,0.35
2023-11-06T11:32:49.570Z,0.60
2023-11-06T11:35:21.463Z,0.75
2023-11-06T11:37:58.716Z,0.40
2023-11-06T11:40:51.904Z,0.47
2023-11-06T11:43:25.861Z,0.43
2023-11-06T11:45:53.697Z,0.20
2023-11-06T11:48:21.744Z,0.22
2023-11-06T11:50:50.341Z,0.40
2023-11-06T11:53:38.382Z,0.40
2023-11-06T11:56:27.711Z,0.77
2023-11-06T11:58:55.858Z,0.30
2023-11-06T12:01:23.732Z,0.43
2023-11-06T12:03:51.573Z,0.30
2023-11-06T12:06:19.531Z,0.43
2023-11-06T12:08:57.561Z,0.22
2023-11-06T12:11:25.499Z,0.25
2023-11-06T12:13:53.501Z,0.20
2023-11-06T12:16:23.628Z,0.40
2023-11-06T12:18:57.938Z,0.77
2023-11-06T12:21:25.818Z,0.90
2023-11-06T12:23:53.595Z,0.30
2023-11-06T12:26:21.457Z,0.68
2023-11-06T12:28:50.143Z,0.40
2023-11-06T12:31:21.193Z,0.50
2023-11-06T12:33:56.183Z,0.57
2023-11-06T12:36:27.757Z,0.90
2023-11-06T12:38:55.644Z,0.25
2023-11-06T12:41:30.463Z,0.35
2023-11-06T12:44:01.541Z,0.43
2023-11-06T12:46:54.145Z,0.60
2023-11-06T12:49:29.580Z,0.10
2023-11-06T12:52:00.351Z,0.40
2023-11-06T12:54:32.946Z,0.50
2023-11-06T12:57:00.946Z,0.28
2023-11-06T12:59:31.597Z,0.20
2023-11-06T13:02:00.317Z,0.30
2023-11-06T13:04:28.859Z,0.20
2023-11-06T13:06:56.683Z,0.35
2023-11-06T13:09:25.672Z,0.20
2023-11-06T13:11:56.254Z,0.20
2023-11-06T13:14:26.445Z,0.57
2023-11-06T13:16:54.733Z,0.77
2023-11-06T13:19:33.290Z,0.63
2023-11-06T13:22:01.863Z,0.30
2023-11-06T13:24:29.771Z,0.65
2023-11-06T13:27:02.860Z,0.40
2023-11-06T13:29:30.983Z,0.35
2023-11-06T13:31:58.787Z,0.30
2023-11-06T13:34:29.379Z,0.25
2023-11-06T13:36:58.938Z,0.30
2023-11-06T13:39:28.272Z,0.68
2023-11-06T13:42:01.196Z,0.43
2023-11-06T13:44:30.243Z,0.30
2023-11-06T13:47:00.351Z,0.57
2023-11-06T13:49:31.483Z,0.55
2023-11-06T13:51:59.346Z,0.55
2023-11-06T13:54:35.621Z,0.50
2023-11-06T13:57:03.560Z,0.57
2023-11-06T13:59:31.542Z,0.20
2023-11-06T14:02:07.601Z,0.43
2023-11-06T14:04:39.518Z,1.15
2023-11-06T14:09:49.538Z,0.50
2023-11-06T14:12:17.387Z,0.30
2023-11-06T14:14:45.570Z,0.30
2023-11-06T14:17:13.610Z,0.20
2023-11-06T14:19:44.001Z,0.50
2023-11-06T14:22:11.934Z,0.65
2023-11-06T14:24:40.240Z,0.10
2023-11-06T14:27:10.641Z,0.43
2023-11-06T14:29:42.244Z,0.55
2023-11-06T14:32:13.250Z,0.35
2023-11-06T14:34:41.375Z,0.28
2023-11-06T14:37:09.332Z,0.50
2023-11-06T14:39:40.978Z,0.20
2023-11-06T14:42:08.726Z,1.02
2023-11-06T14:44:36.656Z,0.20
2023-11-06T14:47:04.677Z,0.60
2023-11-06T14:49:41.363Z,0.40
2023-11-06T14:52:09.273Z,0.22
2023-11-06T14:54:37.315Z,0.20
2023-11-06T14:57:05.210Z,0.75
2023-11-06T14:59:35.412Z,0.40
2023-11-06T15:02:03.311Z,0.40
2023-11-06T15:04:31.253Z,0.90
2023-11-06T15:07:01.755Z,0.28
2023-11-06T15:09:29.545Z,0.40
2023-11-06T15:11:59.860Z,0.60
2023-11-06T15:14:27.764Z,0.20
2023-11-06T15:16:58.287Z,0.30
2023-11-06T15:19:26.154Z,0.43
2023-11-06T15:21:54.765Z,0.70
2023-11-06T15:24:22.685Z,0.30
2023-11-06T15:26:50.484Z,0.40
2023-11-06T15:29:18.397Z,0.73
2023-11-06T15:31:48.953Z,0.30
2023-11-06T15:34:17.038Z,0.30
2023-11-06T15:36:45.127Z,0.70
2023-11-06T15:39:15.290Z,0.30
2023-11-06T15:41:45.274Z,1.48
2023-11-06T15:44:13.231Z,0.32
2023-11-06T15:46:42.905Z,0.60
2023-11-06T15:49:11.034Z,0.40
2023-11-06T15:51:38.725Z,1.02
2023-11-06T15:54:08.262Z,0.73
2023-11-06T15:56:36.195Z,0.73
2023-11-06T15:59:04.091Z,0.50
2023-11-06T16:01:31.793Z,0.68
2023-11-06T16:03:59.528Z,0.55
2023-11-06T16:06:27.386Z,1.42
2023-11-06T16:08:55.111Z,0.73
2023-11-06T16:11:26.917Z,1.20
2023-11-06T16:13:54.646Z,0.95
2023-11-06T16:16:22.362Z,0.68
2023-11-06T16:18:50.158Z,0.40
2023-11-06T16:21:17.895Z,0.40
2023-11-06T16:23:45.673Z,0.65
2023-11-06T16:26:14.520Z,0.32
2023-11-06T16:28:42.506Z,1.73
2023-11-06T16:31:11.808Z,0.55
2023-11-06T16:33:39.651Z,0.75
2023-11-06T16:36:12.036Z,0.57
2023-11-06T16:38:40.889Z,0.50
2023-11-06T16:41:09.864Z,0.82
2023-11-06T16:43:37.910Z,0.30
2023-11-06T16:46:06.415Z,0.60
2023-11-06T16:48:34.270Z,0.52
2023-11-06T16:51:02.199Z,0.85
2023-11-06T16:53:29.967Z,0.40
2023-11-06T16:55:59.182Z,0.32
2023-11-06T16:58:26.987Z,0.80
2023-11-06T17:00:55.389Z,0.40
2023-11-06T17:03:23.521Z,0.85
2023-11-06T17:05:54.987Z,1.08
2023-11-06T17:08:25.246Z,0.40
2023-11-06T17:10:53.701Z,0.93
2023-11-06T17:13:21.378Z,0.88
2023-11-06T17:15:51.555Z,0.70
2023-11-06T17:18:21.794Z,0.77
2023-11-06T17:20:49.837Z,0.88
2023-11-06T17:23:17.601Z,0.80
2023-11-06T17:25:45.458Z,1.17
2023-11-06T17:28:13.185Z,1.50
2023-11-06T17:30:40.990Z,1.40
2023-11-06T17:33:10.033Z,1.02
2023-11-06T17:35:37.997Z,1.90
2023-11-06T17:38:05.726Z,1.00
2023-11-06T17:40:33.446Z,0.80
2023-11-06T17:43:01.169Z,1.25
2023-11-06T17:45:32.180Z,1.38
2023-11-06T17:48:00.068Z,1.30
2023-11-06T17:50:28.531Z,1.42
2023-11-06T17:52:56.372Z,0.93
2023-11-06T17:55:25.027Z,1.55
2023-11-06T17:57:53.129Z,1.45
2023-11-06T18:00:23.627Z,1.55
2023-11-06T18:02:51.630Z,1.42
2023-11-06T18:05:19.455Z,1.90
2023-11-06T18:07:48.328Z,1.88
2023-11-06T18:10:16.046Z,2.92
2023-11-06T18:12:44.676Z,1.70
2023-11-06T18:15:13.254Z,2.92
2023-11-06T18:17:44.246Z,2.15
2023-11-06T18:20:16.296Z,1.80
2023-11-06T18:25:12.233Z,1.90
2023-11-06T18:27:41.081Z,2.15
2023-11-06T18:30:09.454Z,2.30
2023-11-06T18:32:37.561Z,1.83
2023-11-06T18:35:05.678Z,1.80
2023-11-06T18:37:33.407Z,2.35
2023-11-06T18:40:01.135Z,3.00
2023-11-06T18:42:29.265Z,1.75
2023-11-06T18:44:57.032Z,1.80
2023-11-06T18:47:25.655Z,1.63
2023-11-06T18:49:53.644Z,1.23
2023-11-06T18:52:21.369Z,1.80
2023-11-06T18:54:49.167Z,1.52
2023-11-06T18:57:18.106Z,1.40
2023-11-06T18:59:46.421Z,1.70
2023-11-06T19:02:14.598Z,1.45
2023-11-06T19:04:42.614Z,1.55
2023-11-06T19:07:15.601Z,1.25
2023-11-06T19:09:45.559Z,1.15
2023-11-06T19:12:13.266Z,1.83
2023-11-06T19:14:41.208Z,1.10
2023-11-06T19:17:10.758Z,1.25
2023-11-06T19:19:38.515Z,1.63
2023-11-06T19:22:06.779Z,1.85
2023-11-06T19:24:36.745Z,1.10
2023-11-06T19:27:04.573Z,1.10
2023-11-06T19:29:32.326Z,1.80
2023-11-06T19:32:02.552Z,1.33
2023-11-06T19:34:30.332Z,2.00
2023-11-06T19:36:58.082Z,1.15
2023-11-06T19:39:25.818Z,1.27
2023-11-06T19:41:55.057Z,1.88
2023-11-06T19:44:23.053Z,1.67
2023-11-06T19:46:51.037Z,1.80
2023-11-06T19:49:19.200Z,1.00
2023-11-06T19:51:46.987Z,0.90
2023-11-06T19:54:14.912Z,0.68
2023-11-06T19:56:45.104Z,1.08
2023-11-06T19:59:28.657Z,1.02
2023-11-06T20:02:00.549Z,0.80
2023-11-06T20:04:32.020Z,0.70
2023-11-06T20:06:59.996Z,0.70
2023-11-06T20:09:27.933Z,0.88
2023-11-06T20:11:56.063Z,1.10
2023-11-06T20:14:23.855Z,0.60
2023-11-06T20:16:54.752Z,0.85
2023-11-06T20:19:23.474Z,0.47
2023-11-06T20:21:51.391Z,0.38
2023-11-06T20:24:20.048Z,0.52
2023-11-06T20:26:47.836Z,0.40
2023-11-06T20:29:17.774Z,0.63
2023-11-06T20:31:45.513Z,0.77
2023-11-06T20:34:13.383Z,0.40
2023-11-06T20:36:46.372Z,0.40
2023-11-06T20:39:17.493Z,0.60
2023-11-06T20:41:46.086Z,0.47
2023-11-06T20:44:16.147Z,0.40
2023-11-06T20:46:47.423Z,0.32
2023-11-06T20:49:15.844Z,0.70
2023-11-06T20:51:44.027Z,0.60
2023-11-06T20:54:12.943Z,0.30
2023-11-06T20:56:43.411Z,0.40
2023-11-06T20:59:11.719Z,0.57
2023-11-06T21:01:39.478Z,0.45
2023-11-06T21:04:07.460Z,0.40
2023-11-06T21:06:37.778Z,0.50
2023-11-06T21:09:08.043Z,0.88
2023-11-06T21:11:38.807Z,0.28
2023-11-06T21:14:06.612Z,0.30
2023-11-06T21:16:37.495Z,0.40
2023-11-06T21:19:05.990Z,0.40
2023-11-06T21:21:34.498Z,0.10
2023-11-06T21:24:02.267Z,0.28
2023-11-06T21:26:31.002Z,0.20
2023-11-06T21:29:00.724Z,0.30
2023-11-06T21:31:28.769Z,0.30
2023-11-06T21:33:58.345Z,0.40
2023-11-06T21:36:27.099Z,0.52
2023-11-06T21:38:57.627Z,0.57
2023-11-06T21:41:25.939Z,0.30
2023-11-06T21:43:56.141Z,0.40
2023-11-06T21:46:24.382Z,0.30
2023-11-06T21:48:52.257Z,0.40
2023-11-06T21:51:22.060Z,0.20
2023-11-06T21:53:52.500Z,0.22
2023-11-06T21:56:22.466Z,0.20
2023-11-06T21:58:50.338Z,0.30
2023-11-06T22:01:19.657Z,0.20
2023-11-06T22:03:47.242Z,0.40
2023-11-06T22:06:14.755Z,0.20
2023-11-06T22:08:44.730Z,0.43
2023-11-06T22:11:12.161Z,1.05
2023-11-06T22:13:39.864Z,0.30
2023-11-06T22:16:08.380Z,0.52
2023-11-06T22:18:35.982Z,0.50
2023-11-06T22:21:05.916Z,0.45
2023-11-06T22:23:33.357Z,0.40
2023-11-06T22:26:00.872Z,0.35
2023-11-06T22:28:28.873Z,0.28
2023-11-06T22:30:56.298Z,0.20
2023-11-06T22:33:26.269Z,0.30
2023-11-06T22:35:56.356Z,0.55
2023-11-06T22:38:26.057Z,0.28
2023-11-06T22:40:55.685Z,0.40
2023-11-06T22:43:25.252Z,0.47
2023-11-06T22:45:52.695Z,0.47
2023-11-06T22:48:20.216Z,0.28
2023-11-06T22:50:47.758Z,0.20
2023-11-06T22:53:20.646Z,0.15
2023-11-06T22:55:48.196Z,0.17
2023-11-06T22:58:18.134Z,0.22
2023-11-06T23:00:47.805Z,0.55
2023-11-06T23:03:15.548Z,0.30
2023-11-06T23:05:45.777Z,0.15
2023-11-06T23:08:13.484Z,0.10
2023-11-06T23:10:40.947Z,0.10
2023-11-06T23:13:10.824Z,0.05
2023-11-06T23:15:40.755Z,0.10
2023-11-06T23:18:08.340Z,0.50
2023-11-06T23:20:36.109Z,0.10
2023-11-06T23:23:04.415Z,0.10
2023-11-06T23:25:38.275Z,0.20
2023-11-06T23:28:07.384Z,0.10
2023-11-06T23:30:37.334Z,0.10
2023-11-06T23:33:06.325Z,0.10
2023-11-06T23:35:36.958Z,0.10
2023-11-06T23:38:07.084Z,0.20
2023-11-06T23:40:34.922Z,0.20
2023-11-06T23:43:04.166Z,0.05
2023-11-06T23:45:31.913Z,0.10
2023-11-06T23:47:59.841Z,0.57
2023-11-06T23:50:27.372Z,0.10
2023-11-06T23:52:55.377Z,0.00
2023-11-06T23:55:24.986Z,0.20
2023-11-06T23:57:56.908Z,0.10
